Time;durP1;ratioP1;P1;durP2;ratioP2;P2;SDS_P1;SDS_P2;PMS_P1;PMS_P2;Temp;Humidity;BMP_temperature;BMP_pressure;BME280_temperature;BME280_humidity;BME280_pressure;Samples;Min_cycle;Max_cycle;Signal;HPM_P1;HPM_P2
2023/01/11 00:01:06;;;;;;;9.67;4.10;;;6.10;99.90;;;;;;4953153;28;20998;-62
2023/01/11 00:03:32;;;;;;;13.10;3.87;;;6.20;99.90;;;;;;4955481;28;20245;-63
2023/01/11 00:05:58;;;;;;;11.57;3.73;;;6.20;99.90;;;;;;4953857;28;20198;-63
2023/01/11 00:08:25;;;;;;;7.27;3.90;;;6.20;99.90;;;;;;4953089;29;20429;-60
2023/01/11 00:10:52;;;;;;;9.47;3.60;;;6.20;99.90;;;;;;4936196;29;20931;-63
2023/01/11 00:13:17;;;;;;;7.27;3.93;;;6.30;99.90;;;;;;4953894;29;20441;-65
2023/01/11 00:15:43;;;;;;;10.67;4.23;;;6.30;99.90;;;;;;4953178;29;21137;-66
2023/01/11 00:18:09;;;;;;;11.90;4.53;;;6.30;99.90;;;;;;4962678;28;20195;-62
2023/01/11 00:20:38;;;;;;;17.10;4.30;;;6.40;99.90;;;;;;4974157;28;20208;-65
2023/01/11 00:23:04;;;;;;;7.90;4.13;;;6.40;98.70;;;;;;4966317;28;20429;-66
2023/01/11 00:25:29;;;;;;;9.03;3.90;;;6.40;10.80;;;;;;4952877;29;20489;-66
2023/01/11 00:27:55;;;;;;;6.27;4.07;;;6.50;1.00;;;;;;4954154;29;20182;-62
2023/01/11 00:30:21;;;;;;;10.93;5.03;;;6.60;1.00;;;;;;4953054;28;20637;-65
2023/01/11 00:32:46;;;;;;;8.70;4.10;;;6.60;99.90;;;;;;4955422;29;20296;-63
2023/01/11 00:35:12;;;;;;;11.00;4.23;;;6.60;36.80;;;;;;4955425;28;20221;-62
2023/01/11 00:37:38;;;;;;;11.53;4.13;;;6.60;21.50;;;;;;4955724;29;20238;-62
2023/01/11 00:40:04;;;;;;;9.57;4.30;;;6.70;30.90;;;;;;4955108;29;20202;-60
2023/01/11 00:48:00;;;;;;;8.30;4.43;;;6.70;1.00;;;;;;4954793;29;20601;-63
2023/01/11 00:50:31;;;;;;;9.17;4.13;;;6.70;1.00;;;;;;4955373;29;20413;-64
2023/01/11 00:52:58;;;;;;;7.40;3.60;;;6.70;99.90;;;;;;4954884;28;20449;-61
2023/01/11 00:55:25;;;;;;;6.63;4.27;;;6.60;1.00;;;;;;4952616;28;20476;-61
2023/01/11 00:57:51;;;;;;;11.93;3.83;;;6.60;78.80;;;;;;4954368;28;20454;-60
2023/01/11 01:00:18;;;;;;;8.63;4.53;;;6.60;1.00;;;;;;4947208;29;20914;-60
2023/01/11 01:02:44;;;;;;;9.23;3.67;;;6.60;1.00;;;;;;4954867;29;20421;-61
2023/01/11 01:05:10;;;;;;;11.73;4.33;;;6.60;1.00;;;;;;4954449;29;20429;-59
2023/01/11 01:07:36;;;;;;;6.97;4.33;;;6.60;17.70;;;;;;4953700;29;20449;-60
2023/01/11 01:10:03;;;;;;;10.87;4.60;;;6.60;31.20;;;;;;4958724;28;20205;-60
2023/01/11 01:15:13;;;;;;;9.13;4.30;;;6.60;99.90;;;;;;4961220;28;20542;-64
2023/01/11 01:17:39;;;;;;;10.17;4.00;;;6.70;99.90;;;;;;4949520;28;20453;-59
2023/01/11 01:20:05;;;;;;;11.37;3.90;;;6.60;99.90;;;;;;4955235;29;20194;-59
2023/01/11 01:22:30;;;;;;;9.23;4.17;;;6.60;99.90;;;;;;4955154;29;20170;-59
2023/01/11 01:24:56;;;;;;;5.70;3.30;;;6.60;99.90;;;;;;4955741;28;20464;-60
2023/01/11 01:27:22;;;;;;;8.83;4.00;;;6.70;99.90;;;;;;4955057;28;20198;-60
2023/01/11 01:29:47;;;;;;;14.30;4.20;;;6.70;99.90;;;;;;4954542;29;20209;-61
2023/01/11 01:32:13;;;;;;;6.73;3.30;;;6.70;99.90;;;;;;4953987;28;20209;-59
2023/01/11 01:34:38;;;;;;;10.77;4.20;;;6.70;1.00;;;;;;4946611;29;21080;-62
2023/01/11 01:37:05;;;;;;;11.30;4.00;;;6.80;1.00;;;;;;4954438;29;20321;-61
2023/01/11 01:39:31;;;;;;;7.00;3.53;;;6.80;1.00;;;;;;4954562;29;20216;-62
2023/01/11 01:41:57;;;;;;;9.43;3.47;;;6.80;1.00;;;;;;4955154;28;20402;-60
2023/01/11 01:44:51;;;;;;;3.80;3.40;;;6.80;1.00;;;;;;4954252;29;20224;-60
2023/01/11 01:47:20;;;;;;;5.20;3.40;;;6.90;1.00;;;;;;4926371;29;20441;-59
2023/01/11 01:49:46;;;;;;;8.30;3.80;;;6.90;1.00;;;;;;4952486;29;20561;-62
2023/01/11 01:52:12;;;;;;;6.57;3.20;;;6.90;1.00;;;;;;4948069;29;20450;-62
2023/01/11 01:54:42;;;;;;;8.27;3.57;;;6.90;1.00;;;;;;4954331;28;20240;-61
2023/01/11 01:57:18;;;;;;;6.30;3.30;;;7.00;1.00;;;;;;4954519;29;20425;-62
2023/01/11 01:59:44;;;;;;;5.90;3.43;;;6.90;1.00;;;;;;4954806;28;20491;-62
2023/01/11 02:02:10;;;;;;;5.40;3.50;;;7.00;1.00;;;;;;4954598;29;20406;-63
2023/01/11 02:04:40;;;;;;;5.03;3.50;;;7.10;1.00;;;;;;4954093;28;20441;-62
2023/01/11 02:07:19;;;;;;;4.97;3.10;;;7.10;1.00;;;;;;4953358;29;20970;-63
2023/01/11 02:10:00;;;;;;;6.13;3.13;;;7.20;1.00;;;;;;4944709;29;20916;-61
2023/01/11 02:12:30;;;;;;;6.27;3.10;;;7.10;1.00;;;;;;4950288;29;20448;-61
2023/01/11 02:14:59;;;;;;;5.73;3.27;;;7.10;1.00;;;;;;4953631;29;20489;-60
2023/01/11 02:17:25;;;;;;;3.73;2.80;;;7.20;1.00;;;;;;4954340;28;20896;-61
2023/01/11 02:20:02;;;;;;;6.07;3.00;;;7.20;1.00;;;;;;4945563;29;20499;-60
2023/01/11 02:22:39;;;;;;;3.77;2.90;;;7.20;1.00;;;;;;4954331;28;20196;-61
2023/01/11 02:25:43;;;;;;;4.77;2.60;;;7.20;1.00;;;;;;4953896;29;20815;-61
2023/01/11 02:28:26;;;;;;;4.03;2.47;;;7.20;1.00;;;;;;4954019;29;20425;-61
2023/01/11 02:31:09;;;;;;;4.30;2.40;;;7.20;1.00;;;;;;4952665;28;20572;-61
2023/01/11 02:33:43;;;;;;;4.73;2.67;;;7.20;1.00;;;;;;4954512;28;20432;-61
2023/01/11 02:36:18;;;;;;;8.30;2.70;;;7.20;1.00;;;;;;4953282;28;20544;-61
2023/01/11 02:38:55;;;;;;;3.20;2.70;;;7.30;1.00;;;;;;4953461;28;20441;-62
2023/01/11 02:45:00;;;;;;;3.57;2.37;;;7.40;1.00;;;;;;4942794;28;20432;-63
2023/01/11 02:47:32;;;;;;;3.70;2.57;;;7.40;1.00;;;;;;4944549;28;20783;-63
2023/01/11 02:50:10;;;;;;;2.90;2.60;;;7.40;1.00;;;;;;4942124;28;20437;-63
2023/01/11 02:52:43;;;;;;;4.00;2.70;;;7.40;1.00;;;;;;4943130;29;20448;-63
2023/01/11 02:55:12;;;;;;;2.70;2.50;;;7.50;1.00;;;;;;4941992;29;21212;-64
2023/01/11 02:57:39;;;;;;;4.23;2.40;;;7.50;1.00;;;;;;4941685;28;22490;-64
2023/01/11 03:00:05;;;;;;;3.20;2.80;;;7.50;1.00;;;;;;4946060;28;20437;-65
2023/01/11 03:02:31;;;;;;;3.73;3.00;;;7.50;1.00;;;;;;4946943;29;20433;-66
2023/01/11 03:04:56;;;;;;;4.80;2.80;;;7.50;1.00;;;;;;4941768;29;21176;-66
2023/01/11 03:07:34;;;;;;;5.30;3.20;;;7.60;1.00;;;;;;4941775;28;20743;-66
2023/01/11 03:10:30;;;;;;;4.73;2.80;;;7.60;1.00;;;;;;4944016;29;20671;-66
2023/01/11 03:13:32;;;;;;;2.53;2.33;;;7.70;1.00;;;;;;4950374;29;20580;-68
2023/01/11 03:16:07;;;;;;;3.50;2.33;;;7.80;1.00;;;;;;4938237;29;20522;-60
2023/01/11 03:18:58;;;;;;;4.50;2.30;;;7.80;1.00;;;;;;4943791;29;20436;-66
2023/01/11 03:21:26;;;;;;;2.37;2.00;;;7.90;1.00;;;;;;4942860;29;20483;-76
2023/01/11 03:24:23;;;;;;;3.80;2.00;;;7.90;1.00;;;;;;4941531;28;20445;-67
2023/01/11 03:27:05;;;;;;;2.53;1.73;;;7.90;1.00;;;;;;4942924;28;20445;-65
2023/01/11 03:29:37;;;;;;;2.53;2.00;;;8.00;99.90;;;;;;4944238;29;20441;-67
2023/01/11 03:32:22;;;;;;;3.03;1.50;;;8.00;99.90;;;;;;4949907;28;20437;-67
2023/01/11 03:35:13;;;;;;;2.40;1.90;;;8.00;99.90;;;;;;4962780;28;20495;-67
2023/01/11 03:38:11;;;;;;;4.63;1.93;;;8.00;99.90;;;;;;4955638;29;20492;-67
2023/01/11 03:40:41;;;;;;;1.83;1.73;;;8.00;99.90;;;;;;4947625;29;20445;-66
2023/01/11 03:43:10;;;;;;;8.73;1.97;;;8.00;99.90;;;;;;4955862;28;20452;-67
2023/01/11 03:45:48;;;;;;;4.60;1.80;;;8.10;99.90;;;;;;4956573;29;20492;-66
2023/01/11 03:48:26;;;;;;;1.83;1.73;;;8.00;99.90;;;;;;4954774;28;21278;-66
2023/01/11 03:50:54;;;;;;;4.63;2.10;;;8.10;99.90;;;;;;4956797;29;20431;-62
2023/01/11 03:53:24;;;;;;;3.13;2.27;;;8.10;99.90;;;;;;4964402;28;20488;-59
2023/01/11 03:55:54;;;;;;;2.30;1.87;;;8.10;1.00;;;;;;4955499;29;20465;-62
2023/01/11 03:58:20;;;;;;;3.23;2.50;;;8.10;1.00;;;;;;4955740;29;20449;-63
2023/01/11 04:00:46;;;;;;;3.03;2.10;;;8.10;1.00;;;;;;4954785;29;20491;-60
2023/01/11 04:03:13;;;;;;;3.30;2.30;;;8.10;1.00;;;;;;4955255;29;20216;-62
2023/01/11 04:05:43;;;;;;;2.27;2.07;;;8.10;1.00;;;;;;4954909;29;20460;-62
2023/01/11 04:08:10;;;;;;;2.50;2.30;;;8.10;1.00;;;;;;4948225;29;20453;-61
2023/01/11 04:10:36;;;;;;;2.33;1.87;;;8.10;1.00;;;;;;4954755;29;20449;-61
2023/01/11 04:13:03;;;;;;;3.57;1.70;;;8.10;1.00;;;;;;4954957;29;20449;-61
2023/01/11 04:15:30;;;;;;;3.67;2.80;;;8.10;1.00;;;;;;4937270;29;20480;-61
2023/01/11 04:18:03;;;;;;;6.47;2.00;;;8.10;1.00;;;;;;4951553;29;20453;-61
2023/01/11 04:20:29;;;;;;;3.50;1.93;;;8.00;1.00;;;;;;4955243;29;20447;-61
2023/01/11 04:22:55;;;;;;;2.27;2.00;;;8.00;1.00;;;;;;4945950;28;20499;-60
2023/01/11 04:25:20;;;;;;;7.17;2.13;;;8.00;1.00;;;;;;4953649;29;20457;-60
2023/01/11 04:27:46;;;;;;;2.20;1.60;;;8.00;1.00;;;;;;4955289;28;20204;-60
2023/01/11 04:30:12;;;;;;;1.90;1.80;;;8.10;1.00;;;;;;4955686;28;20253;-60
2023/01/11 04:32:37;;;;;;;2.17;2.03;;;8.10;1.00;;;;;;4938434;29;20213;-61
2023/01/11 04:35:03;;;;;;;3.70;1.83;;;8.10;1.00;;;;;;4954193;29;20222;-60
2023/01/11 04:37:29;;;;;;;2.13;1.93;;;8.10;1.00;;;;;;4954221;29;20395;-62
2023/01/11 04:39:54;;;;;;;1.83;1.73;;;8.10;1.00;;;;;;4954931;28;20465;-60
2023/01/11 04:42:20;;;;;;;1.90;1.80;;;8.10;1.00;;;;;;4953804;29;20204;-60
2023/01/11 04:44:50;;;;;;;2.33;1.83;;;8.10;1.00;;;;;;4955019;28;20216;-61
2023/01/11 04:47:17;;;;;;;1.83;1.70;;;8.10;1.00;;;;;;4954641;29;20674;-61
2023/01/11 04:49:42;;;;;;;1.70;1.60;;;8.10;1.00;;;;;;4954149;28;21089;-61
2023/01/11 04:52:14;;;;;;;2.90;1.60;;;8.10;1.00;;;;;;4954661;28;20465;-61
2023/01/11 04:54:40;;;;;;;2.70;1.77;;;8.10;1.00;;;;;;4955170;28;20228;-61
2023/01/11 04:57:06;;;;;;;1.90;1.80;;;8.10;1.00;;;;;;4955603;28;20850;-60
2023/01/11 04:59:32;;;;;;;1.87;1.77;;;8.10;1.00;;;;;;4936020;29;20206;-60
2023/01/11 05:01:57;;;;;;;2.07;1.83;;;8.20;1.00;;;;;;4943149;29;20471;-60
2023/01/11 05:04:23;;;;;;;2.33;1.77;;;8.20;1.00;;;;;;4940410;28;20227;-60
2023/01/11 05:06:48;;;;;;;2.50;1.87;;;8.20;1.00;;;;;;4941016;28;20211;-61
2023/01/11 05:09:16;;;;;;;1.80;1.70;;;8.20;1.00;;;;;;4941796;28;20220;-61
2023/01/11 05:11:42;;;;;;;2.23;1.50;;;8.20;1.00;;;;;;4948883;29;20652;-61
2023/01/11 05:14:08;;;;;;;2.47;2.10;;;8.30;1.00;;;;;;4953705;29;20485;-60
2023/01/11 05:16:34;;;;;;;1.63;1.53;;;8.30;1.00;;;;;;4954013;28;20987;-67
2023/01/11 05:19:00;;;;;;;5.17;1.77;;;8.40;1.00;;;;;;4953768;29;20449;-60
2023/01/11 05:21:38;;;;;;;1.80;1.70;;;8.40;1.00;;;;;;4954583;29;20202;-58
2023/01/11 05:24:06;;;;;;;1.80;1.70;;;8.40;1.00;;;;;;4963444;28;20440;-60
2023/01/11 05:26:35;;;;;;;2.60;2.00;;;8.40;1.00;;;;;;4954206;29;20464;-45
2023/01/11 05:29:03;;;;;;;1.70;1.57;;;8.40;1.00;;;;;;4954128;29;20452;-45
2023/01/11 05:31:30;;;;;;;3.30;1.60;;;8.40;1.00;;;;;;4954172;28;20490;-45
2023/01/11 05:33:57;;;;;;;1.50;1.40;;;8.50;1.00;;;;;;4954233;29;20516;-45
2023/01/11 05:36:24;;;;;;;1.83;1.73;;;8.50;1.00;;;;;;4953975;29;20484;-45
2023/01/11 05:38:51;;;;;;;2.20;1.73;;;8.50;1.00;;;;;;4952970;29;20448;-45
2023/01/11 05:41:19;;;;;;;2.30;1.70;;;8.50;1.00;;;;;;4953084;29;20445;-45
2023/01/11 05:46:33;;;;;;;1.70;1.60;;;8.60;1.00;;;;;;4953450;28;20606;-45
2023/01/11 05:48:59;;;;;;;1.73;1.60;;;8.60;1.00;;;;;;4954264;28;20453;-45
2023/01/11 05:51:26;;;;;;;2.10;1.70;;;8.60;1.00;;;;;;4953257;29;20585;-44
2023/01/11 05:53:52;;;;;;;2.30;1.60;;;8.60;1.00;;;;;;4955726;28;20452;-45
2023/01/11 05:56:18;;;;;;;2.17;2.07;;;8.60;1.00;;;;;;4952859;28;20469;-46
2023/01/11 05:58:49;;;;;;;1.80;1.70;;;8.70;1.00;;;;;;4945871;29;20544;-45
2023/01/11 06:01:17;;;;;;;1.77;1.67;;;8.70;1.00;;;;;;4953550;29;20441;-45
2023/01/11 06:03:44;;;;;;;1.70;1.60;;;8.70;1.00;;;;;;4953488;29;20484;-45
2023/01/11 06:06:09;;;;;;;1.97;1.37;;;8.70;1.00;;;;;;4952741;29;20457;-45
2023/01/11 06:08:35;;;;;;;1.87;1.77;;;8.70;1.00;;;;;;4954036;29;20424;-45
2023/01/11 06:11:01;;;;;;;2.30;1.90;;;8.70;1.00;;;;;;4952856;29;20225;-45
2023/01/11 06:13:26;;;;;;;1.90;1.80;;;8.70;1.00;;;;;;4953974;29;20205;-45
2023/01/11 06:16:15;;;;;;;1.97;1.87;;;8.80;1.00;;;;;;4952745;28;21043;-45
2023/01/11 06:18:43;;;;;;;2.00;1.90;;;8.80;1.00;;;;;;4945496;28;20217;-45
2023/01/11 06:21:10;;;;;;;1.90;1.80;;;8.80;1.00;;;;;;4954134;28;20422;-45
2023/01/11 06:23:39;;;;;;;2.10;2.00;;;8.80;1.00;;;;;;4953685;29;20429;-45
2023/01/11 06:26:08;;;;;;;2.90;1.80;;;8.80;1.00;;;;;;4953551;29;20815;-45
2023/01/11 06:28:35;;;;;;;1.97;1.87;;;8.80;1.00;;;;;;4953827;29;20417;-46
2023/01/11 06:31:00;;;;;;;1.97;1.77;;;8.90;1.00;;;;;;4953824;28;20889;-45
2023/01/11 06:33:27;;;;;;;1.80;1.70;;;8.90;1.00;;;;;;4953772;29;20421;-45
2023/01/11 06:35:54;;;;;;;2.30;2.10;;;8.90;1.00;;;;;;4953473;28;20269;-45
2023/01/11 06:38:21;;;;;;;4.40;2.33;;;8.90;1.00;;;;;;4953383;29;20816;-45
2023/01/11 06:40:59;;;;;;;2.50;2.33;;;8.90;1.00;;;;;;4953491;29;20414;-45
2023/01/11 06:43:26;;;;;;;2.30;2.10;;;8.90;1.00;;;;;;4951657;28;20504;-45
2023/01/11 06:45:52;;;;;;;2.70;2.50;;;9.00;1.00;;;;;;4952430;29;20864;-45
2023/01/11 06:48:19;;;;;;;2.80;2.43;;;9.00;1.00;;;;;;4956296;28;20468;-46
2023/01/11 06:50:49;;;;;;;3.90;2.50;;;9.00;1.00;;;;;;4968710;28;20438;-46
2023/01/11 06:53:15;;;;;;;2.77;2.57;;;9.10;1.00;;;;;;4953663;29;20410;-45
2023/01/11 06:55:40;;;;;;;2.70;2.50;;;9.10;1.00;;;;;;4935372;29;20481;-45
2023/01/11 06:58:06;;;;;;;2.57;2.37;;;9.10;1.00;;;;;;4953072;29;20436;-45
2023/01/11 07:00:32;;;;;;;3.40;3.13;;;9.10;1.00;;;;;;4951430;29;20225;-45
2023/01/11 07:03:04;;;;;;;3.00;2.80;;;9.10;1.00;;;;;;4954298;29;20194;-45
2023/01/11 07:05:34;;;;;;;3.27;2.97;;;9.10;1.00;;;;;;4956631;28;20730;-46
2023/01/11 07:08:00;;;;;;;3.40;3.20;;;9.10;1.00;;;;;;4951658;29;20441;-45
2023/01/11 07:10:26;;;;;;;4.23;3.17;;;9.10;1.00;;;;;;4951831;28;20459;-45
2023/01/11 07:12:52;;;;;;;3.70;3.40;;;9.20;1.00;;;;;;4952283;29;20441;-46
2023/01/11 07:15:18;;;;;;;4.57;3.43;;;9.20;7.50;;;;;;4952187;29;20805;-45
2023/01/11 07:17:44;;;;;;;4.37;3.40;;;9.20;11.30;;;;;;4951800;29;20485;-45
2023/01/11 07:20:10;;;;;;;3.77;3.47;;;9.20;14.30;;;;;;4952177;29;20476;-45
2023/01/11 07:22:36;;;;;;;4.17;3.80;;;9.20;17.50;;;;;;4952328;28;20198;-45
2023/01/11 07:25:03;;;;;;;4.00;3.70;;;9.30;20.90;;;;;;4950438;29;20777;-46
2023/01/11 07:27:29;;;;;;;4.90;4.40;;;9.30;22.60;;;;;;4952247;29;20201;-45
2023/01/11 07:29:55;;;;;;;5.07;4.10;;;9.40;22.30;;;;;;4952338;29;20778;-46
2023/01/11 07:32:20;;;;;;;6.33;4.10;;;9.40;22.20;;;;;;4952250;29;20198;-45
2023/01/11 07:34:46;;;;;;;4.90;4.50;;;9.40;21.90;;;;;;4951262;28;20201;-45
2023/01/11 07:37:12;;;;;;;4.43;4.13;;;9.40;21.80;;;;;;4950556;28;20566;-46
2023/01/11 07:39:37;;;;;;;4.40;3.97;;;9.40;21.30;;;;;;4953004;29;20528;-45
2023/01/11 07:44:48;;;;;;;8.53;4.50;;;9.40;22.90;;;;;;4946070;28;20212;-45
2023/01/11 07:47:13;;;;;;;4.87;4.37;;;9.40;20.80;;;;;;4951928;28;20457;-45
2023/01/11 07:49:39;;;;;;;5.83;5.30;;;9.50;23.50;;;;;;4949480;29;20241;-45
2023/01/11 07:52:04;;;;;;;5.80;5.30;;;9.50;23.00;;;;;;4950201;28;20198;-46
2023/01/11 07:54:30;;;;;;;4.63;4.23;;;9.50;22.00;;;;;;4952314;29;20225;-46
2023/01/11 07:56:55;;;;;;;4.93;4.43;;;9.50;26.10;;;;;;4950630;28;20663;-46
2023/01/11 07:59:21;;;;;;;6.13;4.43;;;9.50;32.90;;;;;;4952197;29;20190;-45
2023/01/11 08:01:47;;;;;;;5.20;4.70;;;9.50;40.90;;;;;;4952574;28;20182;-45
2023/01/11 08:04:13;;;;;;;5.60;5.10;;;9.50;47.60;;;;;;4963359;28;20246;-45
2023/01/11 08:06:39;;;;;;;5.10;4.60;;;9.50;55.60;;;;;;4952051;29;20202;-46
2023/01/11 08:09:05;;;;;;;6.13;5.53;;;9.50;60.40;;;;;;4952768;29;20181;-46
2023/01/11 08:16:59;;;;;;;6.20;5.60;;;9.40;84.30;;;;;;4952618;28;20439;-45
2023/01/11 08:19:25;;;;;;;6.70;6.00;;;9.50;95.20;;;;;;4954871;28;20405;-45
2023/01/11 08:21:50;;;;;;;9.80;6.93;;;9.50;99.90;;;;;;4951439;28;20241;-45
2023/01/11 08:24:16;;;;;;;10.00;6.67;;;9.50;99.90;;;;;;4955457;29;20208;-45
2023/01/11 08:26:42;;;;;;;8.27;5.67;;;9.50;99.90;;;;;;4956164;28;20528;-45
2023/01/11 08:29:08;;;;;;;9.07;6.00;;;9.50;99.90;;;;;;4956409;29;20465;-45
2023/01/11 08:31:33;;;;;;;11.93;6.83;;;9.60;99.90;;;;;;4955536;29;20735;-45
2023/01/11 08:33:59;;;;;;;8.80;6.40;;;9.50;95.30;;;;;;4958369;29;20200;-46
2023/01/11 08:36:26;;;;;;;10.73;6.77;;;9.50;93.90;;;;;;4957899;29;20237;-45
2023/01/11 08:38:58;;;;;;;7.10;6.00;;;9.60;93.80;;;;;;4952424;29;20233;-46
2023/01/11 08:41:23;;;;;;;9.30;6.53;;;9.60;92.60;;;;;;4935148;29;20485;-45
2023/01/11 08:43:50;;;;;;;7.80;6.43;;;9.60;91.10;;;;;;4938002;29;20470;-46
2023/01/11 08:46:17;;;;;;;6.07;5.47;;;9.70;90.00;;;;;;4938180;29;20171;-46
2023/01/11 08:48:43;;;;;;;7.10;5.67;;;9.70;79.40;;;;;;4937634;29;20453;-46
2023/01/11 08:51:09;;;;;;;7.17;5.70;;;9.70;77.30;;;;;;4936952;29;20454;-46
2023/01/11 08:53:34;;;;;;;7.67;5.87;;;9.80;73.60;;;;;;4937402;29;20647;-45
2023/01/11 08:56:00;;;;;;;5.37;4.87;;;9.80;66.40;;;;;;4936483;29;20229;-46
2023/01/11 08:58:26;;;;;;;5.43;4.93;;;9.90;58.90;;;;;;4937304;29;20186;-46
2023/01/11 09:00:51;;;;;;;8.37;5.60;;;9.90;48.00;;;;;;4939851;29;20299;-46
2023/01/11 09:03:17;;;;;;;5.97;4.93;;;9.80;34.10;;;;;;4945096;29;20182;-50
2023/01/11 09:05:44;;;;;;;6.03;4.87;;;9.80;26.40;;;;;;4941111;29;20202;-46
2023/01/11 09:08:10;;;;;;;7.83;4.70;;;9.80;15.70;;;;;;4935908;29;20201;-46
2023/01/11 09:10:36;;;;;;;6.13;4.53;;;9.80;6.10;;;;;;4936916;29;20481;-46
2023/01/11 09:13:01;;;;;;;6.67;4.87;;;9.80;1.00;;;;;;4936871;29;21193;-46
2023/01/11 09:15:30;;;;;;;10.53;4.53;;;9.80;1.00;;;;;;4936873;29;20501;-46
2023/01/11 09:17:55;;;;;;;6.17;4.93;;;9.80;1.00;;;;;;4937496;29;20237;-46
2023/01/11 09:20:21;;;;;;;5.70;4.50;;;9.80;1.00;;;;;;4936390;29;20458;-46
2023/01/11 09:22:51;;;;;;;7.50;4.47;;;9.80;1.00;;;;;;4937115;29;20233;-46
2023/01/11 09:25:17;;;;;;;6.73;4.37;;;9.80;1.00;;;;;;4935396;29;20227;-46
2023/01/11 09:27:47;;;;;;;4.60;4.10;;;9.80;1.00;;;;;;4936823;29;20505;-46
2023/01/11 09:30:15;;;;;;;5.00;4.00;;;9.80;1.00;;;;;;4934814;29;20494;-46
2023/01/11 09:32:41;;;;;;;7.03;4.47;;;9.80;1.00;;;;;;4933428;29;20533;-46
2023/01/11 09:35:07;;;;;;;6.77;5.00;;;9.80;1.00;;;;;;4935127;29;21091;-46
2023/01/11 09:37:35;;;;;;;6.97;4.60;;;9.80;1.00;;;;;;4945252;28;20226;-46
2023/01/11 09:40:01;;;;;;;6.37;5.00;;;9.80;1.00;;;;;;4954938;28;21203;-46
2023/01/11 09:42:38;;;;;;;5.70;4.87;;;9.80;1.00;;;;;;4954299;28;20445;-46
2023/01/11 09:45:05;;;;;;;6.70;5.50;;;9.80;1.00;;;;;;4953470;29;20205;-46
2023/01/11 09:47:42;;;;;;;6.93;4.57;;;9.90;1.00;;;;;;4954087;29;20429;-46
2023/01/11 09:50:22;;;;;;;4.60;4.20;;;9.90;1.00;;;;;;4953733;28;20802;-46
2023/01/11 09:52:56;;;;;;;6.50;4.60;;;9.80;1.00;;;;;;4954398;29;20453;-46
2023/01/11 09:55:38;;;;;;;7.93;4.50;;;9.80;1.00;;;;;;4954112;29;20834;-46
2023/01/11 09:58:31;;;;;;;8.50;4.20;;;9.80;1.00;;;;;;4954515;29;20417;-46
2023/01/11 10:01:29;;;;;;;11.43;4.77;;;9.80;1.00;;;;;;4952827;28;20433;-59
2023/01/11 10:04:24;;;;;;;6.33;3.43;;;9.90;1.00;;;;;;4954376;28;20437;-59
2023/01/11 10:07:21;;;;;;;4.27;3.10;;;9.90;1.00;;;;;;4953692;29;20831;-60
2023/01/11 10:10:15;;;;;;;6.70;2.93;;;9.80;1.00;;;;;;4912079;29;20508;-59
2023/01/11 10:13:04;;;;;;;4.50;2.87;;;9.90;1.00;;;;;;4955305;29;20525;-60
2023/01/11 10:15:45;;;;;;;4.80;2.87;;;9.80;1.00;;;;;;4954273;28;20995;-60
2023/01/11 10:19:15;;;;;;;5.77;2.90;;;9.80;1.00;;;;;;4953687;29;20449;-60
2023/01/11 10:21:57;;;;;;;5.07;2.70;;;9.80;1.00;;;;;;4912841;29;20528;-58
2023/01/11 10:24:42;;;;;;;3.30;3.00;;;9.80;1.00;;;;;;4953112;29;20472;-60
2023/01/11 10:27:29;;;;;;;5.10;2.97;;;9.90;1.00;;;;;;4953274;29;20492;-61
2023/01/11 10:30:31;;;;;;;4.73;2.40;;;9.90;1.00;;;;;;4952848;28;20500;-60
2023/01/11 10:33:17;;;;;;;4.43;2.37;;;9.90;1.00;;;;;;4953979;29;20499;-61
2023/01/11 10:42:02;;;;;;;6.23;2.67;;;9.90;1.00;;;;;;4954328;28;20515;-61
2023/01/11 10:44:40;;;;;;;12.27;2.60;;;9.80;1.00;;;;;;4954390;28;20860;-67
2023/01/11 10:47:15;;;;;;;6.83;2.83;;;9.80;1.00;;;;;;4954900;28;20472;-64
2023/01/11 10:50:03;;;;;;;7.87;2.40;;;9.80;1.00;;;;;;4953542;29;20468;-63
2023/01/11 10:52:32;;;;;;;9.20;2.30;;;9.80;1.00;;;;;;4954375;28;20946;-63
2023/01/11 10:54:59;;;;;;;6.20;2.67;;;9.70;1.00;;;;;;4954772;29;20449;-64
2023/01/11 10:57:54;;;;;;;5.77;2.10;;;9.70;1.00;;;;;;4954322;28;20850;-63
2023/01/11 11:00:23;;;;;;;5.67;2.50;;;9.80;1.00;;;;;;4945092;29;20437;-65
2023/01/11 11:03:07;;;;;;;6.70;2.00;;;9.70;1.00;;;;;;4954349;29;20469;-65
2023/01/11 11:05:51;;;;;;;5.57;2.07;;;9.70;1.00;;;;;;4949039;29;20414;-46
2023/01/11 11:08:35;;;;;;;6.40;2.20;;;9.70;1.00;;;;;;4953722;28;20441;-46
2023/01/11 11:11:05;;;;;;;6.50;2.40;;;9.70;1.00;;;;;;4953516;29;20436;-46
2023/01/11 11:14:12;;;;;;;4.97;2.17;;;9.80;1.00;;;;;;4953948;29;20437;-46
2023/01/11 11:16:58;;;;;;;11.80;2.70;;;9.80;1.00;;;;;;4936912;29;20516;-46
2023/01/11 11:19:30;;;;;;;13.63;3.93;;;9.90;99.90;;;;;;4954902;28;20425;-46
2023/01/11 11:21:55;;;;;;;7.43;2.17;;;9.80;99.90;;;;;;4970587;28;20512;-67
2023/01/11 11:24:26;;;;;;;5.47;2.03;;;9.80;99.90;;;;;;4973688;28;20856;-66
2023/01/11 11:26:59;;;;;;;5.23;2.40;;;9.90;99.90;;;;;;4945690;28;20201;-68
2023/01/11 11:29:29;;;;;;;9.03;2.17;;;9.90;99.90;;;;;;4953797;29;20520;-66
2023/01/11 11:31:57;;;;;;;8.37;2.27;;;9.90;99.90;;;;;;4953801;28;20425;-66
2023/01/11 11:34:26;;;;;;;9.30;2.30;;;9.90;99.90;;;;;;4951935;28;20782;-69
2023/01/11 11:36:53;;;;;;;10.27;2.40;;;9.90;99.90;;;;;;4952958;28;20520;-66
2023/01/11 11:39:18;;;;;;;5.90;2.40;;;9.90;99.90;;;;;;4954184;29;20413;-68
2023/01/11 11:41:50;;;;;;;5.87;2.43;;;9.90;99.90;;;;;;4954088;29;20907;-66
2023/01/11 11:44:26;;;;;;;3.70;2.20;;;9.90;99.90;;;;;;4954098;29;20209;-68
2023/01/11 11:47:15;;;;;;;4.70;2.50;;;9.90;99.90;;;;;;4954021;28;20517;-68
2023/01/11 11:49:42;;;;;;;5.00;2.20;;;9.90;99.90;;;;;;4944178;28;20441;-68
2023/01/11 11:52:16;;;;;;;8.30;2.73;;;9.90;99.90;;;;;;4954309;29;20452;-67
2023/01/11 11:54:56;;;;;;;9.33;2.20;;;9.90;99.90;;;;;;4956638;28;20460;-67
2023/01/11 11:57:28;;;;;;;5.40;2.97;;;10.00;99.90;;;;;;4958199;29;20432;-67
2023/01/11 12:00:06;;;;;;;7.00;2.60;;;9.90;99.90;;;;;;4957994;28;20430;-66
2023/01/11 12:02:35;;;;;;;4.50;2.00;;;10.00;99.90;;;;;;4940130;29;20429;-68
2023/01/11 12:05:07;;;;;;;6.30;2.63;;;10.00;99.90;;;;;;4957421;29;20899;-67
2023/01/11 12:07:36;;;;;;;4.97;2.30;;;10.00;99.90;;;;;;4957794;28;20433;-68
2023/01/11 12:10:07;;;;;;;11.30;2.47;;;9.90;99.90;;;;;;4957732;28;20418;-68
2023/01/11 12:12:33;;;;;;;5.53;2.20;;;9.90;99.90;;;;;;4957380;29;21029;-67
2023/01/11 12:15:14;;;;;;;13.07;2.70;;;9.90;99.90;;;;;;4957520;28;20460;-67
2023/01/11 12:17:40;;;;;;;10.53;2.83;;;9.90;99.90;;;;;;4957002;29;20692;-67
2023/01/11 12:20:20;;;;;;;11.27;2.80;;;9.90;99.90;;;;;;4957295;29;20425;-53
2023/01/11 12:22:47;;;;;;;6.20;2.83;;;9.90;99.90;;;;;;4957323;28;20417;-67
2023/01/11 12:25:24;;;;;;;8.80;3.20;;;9.90;99.90;;;;;;4957177;28;20975;-67
2023/01/11 12:28:12;;;;;;;11.20;3.40;;;9.90;99.90;;;;;;4957548;29;20417;-67
2023/01/11 12:30:49;;;;;;;11.00;2.93;;;9.90;99.90;;;;;;4957373;29;20416;-67
2023/01/11 12:33:24;;;;;;;12.30;3.30;;;9.90;99.90;;;;;;4957141;29;20404;-67
2023/01/11 12:35:58;;;;;;;11.43;3.70;;;9.80;99.90;;;;;;4955988;28;20623;-66
2023/01/11 12:38:54;;;;;;;12.17;3.23;;;9.80;99.90;;;;;;4956247;28;20432;-69
2023/01/11 12:42:01;;;;;;;9.63;3.40;;;9.80;99.90;;;;;;4956312;28;21066;-67
2023/01/11 12:45:14;;;;;;;9.97;3.57;;;9.80;99.90;;;;;;4956390;29;21022;-67
2023/01/11 12:47:49;;;;;;;14.00;3.30;;;9.80;99.90;;;;;;4972416;28;20421;-65
2023/01/11 12:50:24;;;;;;;10.57;3.70;;;9.80;99.90;;;;;;4955983;29;20486;-67
2023/01/11 12:52:59;;;;;;;8.53;3.33;;;9.80;99.90;;;;;;4955420;28;20452;-68
2023/01/11 12:55:40;;;;;;;9.27;3.67;;;9.80;99.90;;;;;;4956434;29;20875;-69
2023/01/11 12:58:12;;;;;;;9.57;4.00;;;9.80;99.90;;;;;;4956821;28;20825;-69
2023/01/11 13:00:55;;;;;;;12.30;3.50;;;9.80;99.90;;;;;;4956882;29;20398;-69
2023/01/11 13:03:54;;;;;;;10.40;4.57;;;9.80;99.90;;;;;;4956508;29;20472;-69
2023/01/11 13:06:30;;;;;;;9.93;3.80;;;9.80;99.90;;;;;;4955152;28;20452;-70
2023/01/11 13:09:19;;;;;;;11.97;4.00;;;9.90;99.90;;;;;;4957028;28;20507;-68
2023/01/11 13:12:07;;;;;;;9.93;4.30;;;9.90;99.90;;;;;;4956877;28;20488;-71
2023/01/11 13:14:42;;;;;;;13.40;3.97;;;9.90;99.90;;;;;;4951340;29;20461;-71
2023/01/11 13:17:36;;;;;;;10.10;3.90;;;9.90;99.90;;;;;;4957633;29;20771;-73
2023/01/11 13:20:07;;;;;;;10.63;4.27;;;9.90;99.90;;;;;;4957968;29;20869;-72
2023/01/11 13:22:38;;;;;;;17.73;4.00;;;10.00;99.90;;;;;;4957987;29;20413;-71
2023/01/11 13:25:17;;;;;;;14.00;3.80;;;10.10;99.90;;;;;;4957977;29;20414;-52
2023/01/11 13:27:45;;;;;;;13.77;3.70;;;10.10;40.40;;;;;;4957824;29;20433;-72
2023/01/11 13:30:12;;;;;;;13.03;3.80;;;10.10;1.00;;;;;;4956037;28;20433;-72
2023/01/11 13:32:41;;;;;;;11.63;3.17;;;10.10;1.00;;;;;;4956344;29;20493;-68
2023/01/11 13:35:48;;;;;;;7.23;2.93;;;10.80;1.00;;;;;;4955351;29;20951;-66
2023/01/11 13:38:32;;;;;;;13.80;2.90;;;11.90;99.90;;;;;;4914869;29;20801;-65
2023/01/11 13:41:10;;;;;;;17.00;2.97;;;13.00;1.00;;;;;;4937162;29;20486;-66
2023/01/11 13:43:43;;;;;;;10.00;2.63;;;12.90;99.90;;;;;;4936956;29;20795;-67
2023/01/11 13:46:46;;;;;;;12.33;2.60;;;12.80;1.00;;;;;;4937101;29;20517;-66
2023/01/11 13:49:30;;;;;;;10.50;3.03;;;12.40;1.00;;;;;;4936848;29;20908;-66
2023/01/11 13:52:03;;;;;;;18.80;2.97;;;11.80;1.00;;;;;;4936630;29;20422;-67
2023/01/11 13:54:57;;;;;;;10.83;3.00;;;11.30;2.50;;;;;;4936882;29;20410;-67